Strona główna
METAR-TAF:

METAR-TAF

Lotnisko :

São Pedro da Aldeia, Rio de Janeiro, Brazylia

Szerokość geograficzna: 22-49S, Długość geograficzna: 042-06W, wysokość: 10 m

Aktualna obserwacja pogody

Raport powstał 54 minut temu, godzina 12:00 UTC
Wiatr 9 kt od wschodnio-północny wschód
Temperatura 25°C
Wilgotność 69%
Ciśnienie 1018 hPa
Widzialność 10 km lub więcej
Brak chmur poniżej 1500 m i brak chmur cumulonimbus

METAR: SBES 111200Z 06009KT CAVOK 25/19 Q1018

czas: 09:54 (12:54 UTC)


TAF: brakujący

Obserwacja i prognoza pogody dla ponad 4000 lotnisk (raport METAR i TAF).

Dostępne stacje oznaczono żółtymi i czerwonymi punktami na mapie.

Najedź kursorem aby zobaczyć nazwę stacji.

Kliknij aby zobaczyć obserwacje i prognozy pogody.

Aby zmienić mapę: kliknij na zielony przycisk z czarnym krzyżykiem, aby powiększyć; na zielony przycisk z myślnikiem, aby pomniejszyć; na zielone strzałki, aby przejść do map sąsiednich.


METAR-TAF: